ニジネヴァルトフスク の空港の天気 - METARとTAF

Nizhnevartovsk ( USNN / NJC ) - ロシア ニジネヴァルトフスク
飛行場実況気象(Metar)
観測時間10/22 23:30 YEKT (10/22 18:30 UTC)
風向・風速西南西 5m/s
視程10km以上
天気現象
全天の8割程度の雲 雲底高度 1220m
気温-2℃
湿度93%
気圧1007hPa
METARUSNN 221830Z 24005MPS 9999 BKN040 M02/M03 Q1007 R21/32//57 NOSIG RMK QFE750
過去の天気等 Google飛行場航空写真 Wunderground天気予報

過去48時間のMETAR

飛行場予報(TAF)
発表時間: 10/22 22:00 YEKT (10/22 17:00 UTC)
予報対象時間: 22日23時 YEKT ~ 23日23時 YEKT
風向・風速南西 6m/s
視程4,000m
天気現象弱い雪
全天の8割程度の雲 雲底高度 610m
22日23時 YEKT ~ 23日7時 YEKT に一時的に
風向・風速西南西 7m/s
視程1,000m
天気現象しゅう雪
全天の8割程度の雲 雲底高度 120m
全天の8割程度の積乱雲 雲底高度 520m
TAF USNN 221700Z 2218/2318 23006MPS 4000 -SN BKN020
TEMPO 2218/2302 25007MPS 1000 SHSN BKN004 BKN017CB